RJAARJNT

Guest
Details From RJAA - NARITA INTL
To RJNT - TOYAMA
Flight Number -
Tags generated
Created
Modified
Stats Distance 164 nm / 303 km
Max Altitude 20,300 ft / 6,187 m
Waypoints 3
Social Downloads 0
Likes 0
Share VATSIM

Download

Looking for another format? Having issues loading an existing format? Contact us
Advertisement - Login to hide

Notes

Basic altitude profile: - Ascent Rate: 2500ft/min - Ascent Speed: 250kts - Cruise Altitude: 35000ft - Cruise Speed: 420kts - Descent Rate: 1500ft/min - Descent Speed: 250kts Options: - Use NATs: yes - Use PACOTS: yes - Use low airways: yes - Use high airways: yes

Route

RJAA AY RJNT

ID Type Via Altitude Latitude Longitude Leg Dist Tot Dist Heading (true) Name
O RJAA APT - 0 ft / 0 m 35.77655˚ 140.38277˚ - 0 nm - NARITA INTL
AY NDB - 20,300 ft / 6,187 m 36.16394˚ 139.31103˚ 57 nm 57 nm 294° / 294° KUMAGAYA NDB
O RJNT APT - 0 ft / 0 m 36.64842˚ 137.18741˚ 106 nm 163 nm 286° / 285° TOYAMA

Altitude Profile

Advertisement - Login to hide

Weather


0- 5 10 15 20 25 30 35+ Temperature / ° C

Clouds and Precipitation
Forecast for 2017-12-14 06:00 UTC. Updated 2 hours ago

Ground ~20,000 ft ~40,000 ft Winds

RJAA

Details ICAO RJAA (NRT)
Name NARITA INTL
Region Japan
Timezone Asia/Tokyo (UTC+9.0)
Stats Elevation 141 ft / 43 m (AMSL)
Location 35.776552° 140.382770°
Runways 2
Magnetic Variation 7.405° W

METAR

RJAA 140430Z 34010KT 9999 FEW030 09/M05 Q1019 NOSIG

Decode

TAF

TAF RJAA 132306Z 1400/1506 33012KT 9999 FEW030= TAF RJBB 132305Z 1400/1506 34015KT 9999 FEW020 SCT050 BECMG 1415/1418 04008KT

Decode

Departure Runways

ID Width Length Bearing (true) Bearing (mag) Surface Threshold Offset Overrun Length
16L 196 ft / 60 m 7,162 ft / 2,183 m 149.61° 157.02° Asphalt 190 ft / 58 m 0 ft / 0 m
16R 196 ft / 60 m 13,142 ft / 4,006 m 149.61° 157.02° Asphalt 0 ft / 0 m 410 ft / 125 m
34L 196 ft / 60 m 13,142 ft / 4,006 m 329.62° 337.03° Asphalt 0 ft / 0 m 415 ft / 126 m
34R 196 ft / 60 m 7,162 ft / 2,183 m 329.62° 337.03° Asphalt 190 ft / 58 m 0 ft / 0 m

RJNT

Details ICAO RJNT (TOY)
Name TOYAMA
Region Japan
Timezone Asia/Tokyo (UTC+9.0)
Stats Elevation 95 ft / 29 m (AMSL)
Location 36.648423° 137.187412°
Runways 1
Magnetic Variation 8.118° W

METAR

RJNT 140400Z 24004KT 9999 VCSH FEW008 SCT040 BKN070 03/00 Q1026

Decode

TAF

TAF TAF RJNT 132305Z 1400/1506 22005KT 7000 FEW010 BKN030 BECMG 1500/1503 34004KT

Decode

Destination Runways

ID Width Length Bearing (true) Bearing (mag) Surface Threshold Offset Overrun Length
02 150 ft / 46 m 6,575 ft / 2,004 m 13.53° 21.65° Asphalt 0 ft / 0 m 200 ft / 61 m
20 150 ft / 46 m 6,575 ft / 2,004 m 193.53° 201.65° Asphalt 0 ft / 0 m 200 ft / 61 m

Approach Navaids

Runway Type Ident Frequency Range Bearing (true) Bearing (mag) Slope Elevation
20 Localiser ITO 109.30 MHz 18 nm / 33 km 197.21° 205.33° - 95 ft / 29 m (AMSL)
20 DME ITO 109.30 MHz 18 nm / 33 km - - - 98 ft / 30 m (AMSL)

Popular Alternatives